sensor_id;sensor_type;location;lat;lon;timestamp;pressure;altitude;pressure_sealevel;temperature;humidity
80938;BME280;70395;51.382;7.074;2023-11-18T00:01:24;101236.34;;;5.38;69.10
80938;BME280;70395;51.382;7.074;2023-11-18T00:03:50;101234.53;;;5.38;69.28
80938;BME280;70395;51.382;7.074;2023-11-18T00:06:16;101229.22;;;5.38;69.09
80938;BME280;70395;51.382;7.074;2023-11-18T00:08:42;101239.78;;;5.40;69.33
80938;BME280;70395;51.382;7.074;2023-11-18T00:11:09;101231.78;;;5.40;68.91
80938;BME280;70395;51.382;7.074;2023-11-18T00:13:36;101242.34;;;5.41;68.97
80938;BME280;70395;51.382;7.074;2023-11-18T00:16:06;101238.81;;;5.41;68.94
80938;BME280;70395;51.382;7.074;2023-11-18T00:18:31;101242.34;;;5.41;68.89
80938;BME280;70395;51.382;7.074;2023-11-18T00:20:58;101242.44;;;5.40;68.60
80938;BME280;70395;51.382;7.074;2023-11-18T00:23:24;101241.69;;;5.38;68.56
80938;BME280;70395;51.382;7.074;2023-11-18T00:25:52;101237.44;;;5.34;67.93
80938;BME280;70395;51.382;7.074;2023-11-18T00:28:18;101234.13;;;5.30;67.81
80938;BME280;70395;51.382;7.074;2023-11-18T00:30:45;101241.41;;;5.26;67.94
80938;BME280;70395;51.382;7.074;2023-11-18T00:33:11;101240.81;;;5.21;67.91
80938;BME280;70395;51.382;7.074;2023-11-18T00:35:37;101243.84;;;5.15;67.77
80938;BME280;70395;51.382;7.074;2023-11-18T00:38:03;101235.25;;;5.10;67.65
80938;BME280;70395;51.382;7.074;2023-11-18T00:40:30;101238.09;;;5.06;67.57
80938;BME280;70395;51.382;7.074;2023-11-18T00:42:56;101238.28;;;5.03;67.86
80938;BME280;70395;51.382;7.074;2023-11-18T00:45:22;101222.50;;;5.00;67.95
80938;BME280;70395;51.382;7.074;2023-11-18T00:47:48;101226.09;;;4.99;68.17
80938;BME280;70395;51.382;7.074;2023-11-18T00:50:14;101224.28;;;5.00;68.19
80938;BME280;70395;51.382;7.074;2023-11-18T00:52:40;101223.63;;;4.96;68.29
80938;BME280;70395;51.382;7.074;2023-11-18T00:55:08;101217.44;;;4.95;68.37
80938;BME280;70395;51.382;7.074;2023-11-18T00:57:37;101217.44;;;4.95;68.13
80938;BME280;70395;51.382;7.074;2023-11-18T01:00:11;101214.88;;;4.94;68.15
80938;BME280;70395;51.382;7.074;2023-11-18T01:02:40;101211.34;;;4.93;68.43
80938;BME280;70395;51.382;7.074;2023-11-18T01:05:07;101215.72;;;4.94;68.58
80938;BME280;70395;51.382;7.074;2023-11-18T01:07:35;101209.47;;;4.95;68.44
80938;BME280;70395;51.382;7.074;2023-11-18T01:10:01;101216.41;;;4.98;68.65
80938;BME280;70395;51.382;7.074;2023-11-18T01:12:27;101215.28;;;5.02;68.64
80938;BME280;70395;51.382;7.074;2023-11-18T01:14:53;101216.81;;;5.06;68.44
80938;BME280;70395;51.382;7.074;2023-11-18T01:17:19;101218.38;;;5.11;68.31
80938;BME280;70395;51.382;7.074;2023-11-18T01:19:47;101218.09;;;5.15;68.29
80938;BME280;70395;51.382;7.074;2023-11-18T01:22:13;101217.84;;;5.20;68.37
80938;BME280;70395;51.382;7.074;2023-11-18T01:24:39;101226.31;;;5.27;68.40
80938;BME280;70395;51.382;7.074;2023-11-18T01:27:05;101215.41;;;5.32;68.32
80938;BME280;70395;51.382;7.074;2023-11-18T01:29:33;101227.50;;;5.37;68.43
80938;BME280;70395;51.382;7.074;2023-11-18T01:31:59;101232.56;;;5.42;68.31
80938;BME280;70395;51.382;7.074;2023-11-18T01:34:25;101242.00;;;5.48;68.40
80938;BME280;70395;51.382;7.074;2023-11-18T01:36:51;101241.72;;;5.52;68.52
80938;BME280;70395;51.382;7.074;2023-11-18T01:39:20;101248.47;;;5.58;68.50
80938;BME280;70395;51.382;7.074;2023-11-18T01:41:46;101250.88;;;5.63;68.20
80938;BME280;70395;51.382;7.074;2023-11-18T01:44:12;101246.13;;;5.68;68.28
80938;BME280;70395;51.382;7.074;2023-11-18T01:46:42;101261.06;;;5.71;68.38
80938;BME280;70395;51.382;7.074;2023-11-18T01:49:14;101257.47;;;5.72;68.35
80938;BME280;70395;51.382;7.074;2023-11-18T01:51:45;101253.84;;;5.73;68.23
80938;BME280;70395;51.382;7.074;2023-11-18T01:54:15;101250.16;;;5.75;68.24
80938;BME280;70395;51.382;7.074;2023-11-18T01:56:48;101254.63;;;5.75;68.40
80938;BME280;70395;51.382;7.074;2023-11-18T01:59:15;101242.16;;;5.75;68.18
80938;BME280;70395;51.382;7.074;2023-11-18T02:02:03;101241.41;;;5.73;68.25
80938;BME280;70395;51.382;7.074;2023-11-18T02:04:29;101238.75;;;5.73;68.26
80938;BME280;70395;51.382;7.074;2023-11-18T02:06:56;101237.88;;;5.73;68.12
80938;BME280;70395;51.382;7.074;2023-11-18T02:09:23;101231.72;;;5.72;68.14
80938;BME280;70395;51.382;7.074;2023-11-18T02:12:29;101230.16;;;5.68;68.19
80938;BME280;70395;51.382;7.074;2023-11-18T02:14:58;101230.16;;;5.68;68.25
80938;BME280;70395;51.382;7.074;2023-11-18T02:17:28;101227.50;;;5.68;68.24
80938;BME280;70395;51.382;7.074;2023-11-18T02:19:57;101228.38;;;5.69;68.32
80938;BME280;70395;51.382;7.074;2023-11-18T02:22:24;101228.25;;;5.70;68.33
80938;BME280;70395;51.382;7.074;2023-11-18T02:24:50;101228.97;;;5.74;68.30
80938;BME280;70395;51.382;7.074;2023-11-18T02:27:16;101226.94;;;5.78;68.24
80938;BME280;70395;51.382;7.074;2023-11-18T02:29:45;101228.41;;;5.83;68.01
80938;BME280;70395;51.382;7.074;2023-11-18T02:32:29;101228.06;;;5.90;67.82
80938;BME280;70395;51.382;7.074;2023-11-18T02:35:08;101233.09;;;5.94;67.67
80938;BME280;70395;51.382;7.074;2023-11-18T02:37:40;101226.63;;;5.99;67.63
80938;BME280;70395;51.382;7.074;2023-11-18T02:40:12;101237.00;;;6.03;67.33
80938;BME280;70395;51.382;7.074;2023-11-18T02:42:44;101221.78;;;6.05;67.03
80938;BME280;70395;51.382;7.074;2023-11-18T02:45:13;101215.50;;;6.06;67.29
80938;BME280;70395;51.382;7.074;2023-11-18T02:47:44;101219.97;;;6.06;67.06
80938;BME280;70395;51.382;7.074;2023-11-18T02:50:10;101216.41;;;6.07;67.07
80938;BME280;70395;51.382;7.074;2023-11-18T02:52:38;101215.50;;;6.06;67.06
80938;BME280;70395;51.382;7.074;2023-11-18T02:55:06;101219.06;;;6.07;67.00
80938;BME280;70395;51.382;7.074;2023-11-18T02:57:34;101224.41;;;6.07;66.99
80938;BME280;70395;51.382;7.074;2023-11-18T03:00:00;101228.84;;;6.06;66.85
80938;BME280;70395;51.382;7.074;2023-11-18T03:02:28;101235.06;;;6.07;66.78
80938;BME280;70395;51.382;7.074;2023-11-18T03:04:59;101237.63;;;6.08;66.89
80938;BME280;70395;51.382;7.074;2023-11-18T03:07:26;101228.75;;;6.08;66.82
80938;BME280;70395;51.382;7.074;2023-11-18T03:09:54;101224.28;;;6.08;66.82
80938;BME280;70395;51.382;7.074;2023-11-18T03:12:23;101220.78;;;6.08;66.96
80938;BME280;70395;51.382;7.074;2023-11-18T03:14:53;101215.34;;;6.10;66.92
80938;BME280;70395;51.382;7.074;2023-11-18T03:17:19;101209.19;;;6.09;66.82
80938;BME280;70395;51.382;7.074;2023-11-18T03:19:46;101204.69;;;6.10;66.76
80938;BME280;70395;51.382;7.074;2023-11-18T03:22:11;101202.13;;;6.08;66.55
80938;BME280;70395;51.382;7.074;2023-11-18T03:24:39;101192.34;;;6.08;67.00
80938;BME280;70395;51.382;7.074;2023-11-18T03:27:05;101193.28;;;6.07;66.99
80938;BME280;70395;51.382;7.074;2023-11-18T03:29:31;101193.28;;;6.07;66.99
80938;BME280;70395;51.382;7.074;2023-11-18T03:31:56;101192.34;;;6.08;66.94
80938;BME280;70395;51.382;7.074;2023-11-18T03:34:22;101179.78;;;6.11;67.26
80938;BME280;70395;51.382;7.074;2023-11-18T03:36:48;101175.13;;;6.14;67.20
80938;BME280;70395;51.382;7.074;2023-11-18T03:39:14;101164.38;;;6.16;67.12
80938;BME280;70395;51.382;7.074;2023-11-18T03:41:41;101168.75;;;6.17;67.32
80938;BME280;70395;51.382;7.074;2023-11-18T03:44:11;101171.44;;;6.17;67.40
80938;BME280;70395;51.382;7.074;2023-11-18T03:46:37;101171.31;;;6.18;67.54
80938;BME280;70395;51.382;7.074;2023-11-18T03:49:03;101166.75;;;6.21;67.40
80938;BME280;70395;51.382;7.074;2023-11-18T03:51:29;101165.88;;;6.20;67.60
80938;BME280;70395;51.382;7.074;2023-11-18T03:53:55;101180.81;;;6.23;67.76
80938;BME280;70395;51.382;7.074;2023-11-18T03:56:21;101181.56;;;6.25;67.62
80938;BME280;70395;51.382;7.074;2023-11-18T03:58:47;101193.78;;;6.29;67.52
80938;BME280;70395;51.382;7.074;2023-11-18T04:01:25;101199.94;;;6.29;67.58
80938;BME280;70395;51.382;7.074;2023-11-18T04:03:55;101204.97;;;6.34;67.67
80938;BME280;70395;51.382;7.074;2023-11-18T04:06:22;101203.00;;;6.38;67.69
80938;BME280;70395;51.382;7.074;2023-11-18T04:08:50;101206.31;;;6.41;67.43
80938;BME280;70395;51.382;7.074;2023-11-18T04:11:17;101195.47;;;6.45;67.56
80938;BME280;70395;51.382;7.074;2023-11-18T04:13:44;101193.56;;;6.47;67.73
80938;BME280;70395;51.382;7.074;2023-11-18T04:16:11;101196.91;;;6.50;67.43
80938;BME280;70395;51.382;7.074;2023-11-18T04:18:42;101193.06;;;6.55;67.44
80938;BME280;70395;51.382;7.074;2023-11-18T04:21:10;101195.44;;;6.59;67.39
80938;BME280;70395;51.382;7.074;2023-11-18T04:23:43;101195.38;;;6.61;67.34
80938;BME280;70395;51.382;7.074;2023-11-18T04:26:09;101191.66;;;6.63;67.49
80938;BME280;70395;51.382;7.074;2023-11-18T04:28:36;101186.97;;;6.67;67.14
80938;BME280;70395;51.382;7.074;2023-11-18T04:31:03;101192.19;;;6.69;67.23
80938;BME280;70395;51.382;7.074;2023-11-18T04:33:29;101190.31;;;6.71;67.25
80938;BME280;70395;51.382;7.074;2023-11-18T04:35:56;101176.88;;;6.72;67.11
80938;BME280;70395;51.382;7.074;2023-11-18T04:38:23;101165.16;;;6.75;67.08
80938;BME280;70395;51.382;7.074;2023-11-18T04:40:49;101153.50;;;6.76;67.16
80938;BME280;70395;51.382;7.074;2023-11-18T04:43:15;101144.56;;;6.77;67.08
80938;BME280;70395;51.382;7.074;2023-11-18T04:45:42;101143.81;;;6.75;67.08
80938;BME280;70395;51.382;7.074;2023-11-18T04:48:08;101135.81;;;6.75;66.88
80938;BME280;70395;51.382;7.074;2023-11-18T04:50:34;101136.75;;;6.74;66.97
80938;BME280;70395;51.382;7.074;2023-11-18T04:53:00;101124.50;;;6.71;67.01
80938;BME280;70395;51.382;7.074;2023-11-18T04:55:26;101134.41;;;6.69;67.11
80938;BME280;70395;51.382;7.074;2023-11-18T04:57:52;101131.09;;;6.66;67.14
80938;BME280;70395;51.382;7.074;2023-11-18T05:00:18;101121.56;;;6.61;67.16
80938;BME280;70395;51.382;7.074;2023-11-18T05:02:46;101121.69;;;6.60;67.17
80938;BME280;70395;51.382;7.074;2023-11-18T05:05:14;101119.22;;;6.57;67.18
80938;BME280;70395;51.382;7.074;2023-11-18T05:07:40;101110.28;;;6.58;67.49
80938;BME280;70395;51.382;7.074;2023-11-18T05:10:08;101102.16;;;6.59;67.20
80938;BME280;70395;51.382;7.074;2023-11-18T05:12:36;101101.22;;;6.60;67.12
80938;BME280;70395;51.382;7.074;2023-11-18T05:15:03;101100.25;;;6.61;67.19
80938;BME280;70395;51.382;7.074;2023-11-18T05:17:41;101097.69;;;6.60;67.37
80938;BME280;70395;51.382;7.074;2023-11-18T05:20:07;101087.78;;;6.62;67.23
80938;BME280;70395;51.382;7.074;2023-11-18T05:22:35;101085.13;;;6.62;67.27
80938;BME280;70395;51.382;7.074;2023-11-18T05:25:03;101093.97;;;6.62;67.18
80938;BME280;70395;51.382;7.074;2023-11-18T05:27:33;101088.84;;;6.59;67.22
80938;BME280;70395;51.382;7.074;2023-11-18T05:29:59;101084.38;;;6.60;67.34
80938;BME280;70395;51.382;7.074;2023-11-18T05:32:29;101076.38;;;6.60;67.33
80938;BME280;70395;51.382;7.074;2023-11-18T05:34:56;101081.81;;;6.58;67.37
80938;BME280;70395;51.382;7.074;2023-11-18T05:37:26;101083.72;;;6.56;67.27
80938;BME280;70395;51.382;7.074;2023-11-18T05:39:54;101080.09;;;6.57;67.29
80938;BME280;70395;51.382;7.074;2023-11-18T05:42:32;101081.81;;;6.58;67.33
80938;BME280;70395;51.382;7.074;2023-11-18T05:44:58;101086.09;;;6.61;67.39
80938;BME280;70395;51.382;7.074;2023-11-18T05:47:28;101076.06;;;6.64;67.25
80938;BME280;70395;51.382;7.074;2023-11-18T05:49:54;101087.41;;;6.68;67.28
80938;BME280;70395;51.382;7.074;2023-11-18T05:52:22;101088.91;;;6.72;67.26
80938;BME280;70395;51.382;7.074;2023-11-18T05:54:48;101084.19;;;6.76;67.21
80938;BME280;70395;51.382;7.074;2023-11-18T05:57:18;101084.00;;;6.79;67.06
80938;BME280;70395;51.382;7.074;2023-11-18T05:59:44;101093.50;;;6.83;67.27
80938;BME280;70395;51.382;7.074;2023-11-18T06:02:10;101085.22;;;6.88;67.25
80938;BME280;70395;51.382;7.074;2023-11-18T06:04:46;101088.53;;;6.92;67.14
80938;BME280;70395;51.382;7.074;2023-11-18T06:07:12;101074.03;;;6.96;67.19
80938;BME280;70395;51.382;7.074;2023-11-18T06:09:43;101070.41;;;6.97;66.91
80938;BME280;70395;51.382;7.074;2023-11-18T06:12:09;101072.03;;;7.00;67.16
80938;BME280;70395;51.382;7.074;2023-11-18T06:14:37;101077.97;;;7.03;67.02
80938;BME280;70395;51.382;7.074;2023-11-18T06:17:03;101078.75;;;7.05;66.99
80938;BME280;70395;51.382;7.074;2023-11-18T06:19:29;101070.66;;;7.07;67.00
80938;BME280;70395;51.382;7.074;2023-11-18T06:21:55;101059.78;;;7.10;66.86
80938;BME280;70395;51.382;7.074;2023-11-18T06:24:21;101049.94;;;7.10;66.78
80938;BME280;70395;51.382;7.074;2023-11-18T06:26:47;101041.00;;;7.12;66.93
80938;BME280;70395;51.382;7.074;2023-11-18T06:29:15;101039.06;;;7.14;66.81
80938;BME280;70395;51.382;7.074;2023-11-18T06:31:41;101048.78;;;7.15;66.84
80938;BME280;70395;51.382;7.074;2023-11-18T06:34:08;101042.47;;;7.16;66.80
80938;BME280;70395;51.382;7.074;2023-11-18T06:36:34;101050.59;;;7.14;66.73
80938;BME280;70395;51.382;7.074;2023-11-18T06:39:00;101054.88;;;7.17;66.85
80938;BME280;70395;51.382;7.074;2023-11-18T06:41:26;101060.84;;;7.20;66.72
80938;BME280;70395;51.382;7.074;2023-11-18T06:43:59;101059.88;;;7.21;66.65
80938;BME280;70395;51.382;7.074;2023-11-18T06:46:31;101060.75;;;7.22;66.62
80938;BME280;70395;51.382;7.074;2023-11-18T06:49:00;101065.84;;;7.25;66.66
80938;BME280;70395;51.382;7.074;2023-11-18T06:51:32;101055.97;;;7.27;66.65
80938;BME280;70395;51.382;7.074;2023-11-18T06:54:01;101055.09;;;7.27;66.67
80938;BME280;70395;51.382;7.074;2023-11-18T06:56:38;101054.03;;;7.29;66.68
80938;BME280;70395;51.382;7.074;2023-11-18T06:59:05;101053.91;;;7.31;66.61
80938;BME280;70395;51.382;7.074;2023-11-18T07:01:33;101060.75;;;7.35;66.53
80938;BME280;70395;51.382;7.074;2023-11-18T07:03:59;101053.50;;;7.37;66.25
80938;BME280;70395;51.382;7.074;2023-11-18T07:06:25;101057.53;;;7.43;66.17
80938;BME280;70395;51.382;7.074;2023-11-18T07:08:53;101060.88;;;7.47;66.04
80938;BME280;70395;51.382;7.074;2023-11-18T07:11:20;101070.38;;;7.51;66.11
80938;BME280;70395;51.382;7.074;2023-11-18T07:13:48;101068.44;;;7.53;66.10
80938;BME280;70395;51.382;7.074;2023-11-18T07:16:15;101078.78;;;7.58;65.99
80938;BME280;70395;51.382;7.074;2023-11-18T07:18:41;101093.66;;;7.62;66.09
80938;BME280;70395;51.382;7.074;2023-11-18T07:21:10;101077.41;;;7.65;65.76
80938;BME280;70395;51.382;7.074;2023-11-18T07:23:36;101078.91;;;7.69;65.88
80938;BME280;70395;51.382;7.074;2023-11-18T07:26:02;101068.00;;;7.72;65.97
80938;BME280;70395;51.382;7.074;2023-11-18T07:28:31;101070.59;;;7.74;65.85
80938;BME280;70395;51.382;7.074;2023-11-18T07:30:57;101070.34;;;7.77;65.90
80938;BME280;70395;51.382;7.074;2023-11-18T07:33:25;101073.00;;;7.77;65.86
80938;BME280;70395;51.382;7.074;2023-11-18T07:35:50;101083.59;;;7.79;65.80
80938;BME280;70395;51.382;7.074;2023-11-18T07:38:18;101084.56;;;7.77;65.82
80938;BME280;70395;51.382;7.074;2023-11-18T07:40:46;101073.88;;;7.77;66.07
80938;BME280;70395;51.382;7.074;2023-11-18T07:43:12;101071.94;;;7.80;66.15
80938;BME280;70395;51.382;7.074;2023-11-18T07:45:39;101055.09;;;7.79;66.06
80938;BME280;70395;51.382;7.074;2023-11-18T07:48:09;101047.69;;;7.83;65.89
80938;BME280;70395;51.382;7.074;2023-11-18T07:50:39;101046.50;;;7.87;65.98
80938;BME280;70395;51.382;7.074;2023-11-18T07:53:07;101028.81;;;7.86;65.83
80938;BME280;70395;51.382;7.074;2023-11-18T07:55:34;101038.63;;;7.85;65.93
80938;BME280;70395;51.382;7.074;2023-11-18T07:58:03;101043.00;;;7.86;66.08
80938;BME280;70395;51.382;7.074;2023-11-18T08:00:42;101041.91;;;7.89;65.98
80938;BME280;70395;51.382;7.074;2023-11-18T08:03:09;101045.00;;;7.96;65.96
80938;BME280;70395;51.382;7.074;2023-11-18T08:05:43;101035.69;;;8.02;65.72
80938;BME280;70395;51.382;7.074;2023-11-18T08:08:10;101038.03;;;8.06;65.66
80938;BME280;70395;51.382;7.074;2023-11-18T08:10:38;101032.38;;;8.11;65.77
80938;BME280;70395;51.382;7.074;2023-11-18T08:13:06;101041.94;;;8.14;65.58
80938;BME280;70395;51.382;7.074;2023-11-18T08:15:41;101036.41;;;8.17;65.38
80938;BME280;70395;51.382;7.074;2023-11-18T08:18:07;101049.41;;;8.21;65.39
80938;BME280;70395;51.382;7.074;2023-11-18T08:20:36;101052.00;;;8.23;65.28
80938;BME280;70395;51.382;7.074;2023-11-18T08:23:03;101050.16;;;8.23;65.07
80938;BME280;70395;51.382;7.074;2023-11-18T08:25:30;101051.88;;;8.25;65.33
80938;BME280;70395;51.382;7.074;2023-11-18T08:28:00;101043.72;;;8.26;65.26
80938;BME280;70395;51.382;7.074;2023-11-18T08:30:33;101047.06;;;8.30;65.19
80938;BME280;70395;51.382;7.074;2023-11-18T08:32:59;101048.31;;;8.37;65.04
80938;BME280;70395;51.382;7.074;2023-11-18T08:35:25;101055.13;;;8.41;65.18
80938;BME280;70395;51.382;7.074;2023-11-18T08:37:51;101052.00;;;8.48;64.83
80938;BME280;70395;51.382;7.074;2023-11-18T08:40:18;101042.91;;;8.50;64.90
80938;BME280;70395;51.382;7.074;2023-11-18T08:42:52;101041.19;;;8.49;64.86
80938;BME280;70395;51.382;7.074;2023-11-18T08:45:20;101040.25;;;8.50;64.68
80938;BME280;70395;51.382;7.074;2023-11-18T08:47:59;101040.13;;;8.52;64.87
80938;BME280;70395;51.382;7.074;2023-11-18T08:50:27;101046.94;;;8.56;64.84
80938;BME280;70395;51.382;7.074;2023-11-18T08:52:55;101044.16;;;8.58;64.80
80938;BME280;70395;51.382;7.074;2023-11-18T08:55:29;101040.53;;;8.59;64.58
80938;BME280;70395;51.382;7.074;2023-11-18T08:58:08;101032.41;;;8.60;64.69
80938;BME280;70395;51.382;7.074;2023-11-18T09:00:57;101039.47;;;8.61;64.27
80938;BME280;70395;51.382;7.074;2023-11-18T09:03:42;101031.44;;;8.61;64.54
80938;BME280;70395;51.382;7.074;2023-11-18T09:06:17;101032.16;;;8.63;64.71
80938;BME280;70395;51.382;7.074;2023-11-18T09:08:46;101030.13;;;8.67;64.43
80938;BME280;70395;51.382;7.074;2023-11-18T09:11:14;101031.94;;;8.66;64.46
80938;BME280;70395;51.382;7.074;2023-11-18T09:13:43;101010.56;;;8.66;64.47
80938;BME280;70395;51.382;7.074;2023-11-18T09:16:11;101018.44;;;8.68;64.59
80938;BME280;70395;51.382;7.074;2023-11-18T09:18:40;101007.66;;;8.70;64.43
80938;BME280;70395;51.382;7.074;2023-11-18T09:21:07;101006.56;;;8.72;64.39
80938;BME280;70395;51.382;7.074;2023-11-18T09:23:40;100999.50;;;8.71;64.32
80938;BME280;70395;51.382;7.074;2023-11-18T09:26:06;100992.44;;;8.70;64.32
80938;BME280;70395;51.382;7.074;2023-11-18T09:28:34;100992.44;;;8.70;64.55
80938;BME280;70395;51.382;7.074;2023-11-18T09:31:09;100986.38;;;8.68;64.28
80938;BME280;70395;51.382;7.074;2023-11-18T09:33:41;100995.25;;;8.69;64.26
80938;BME280;70395;51.382;7.074;2023-11-18T09:36:12;100983.81;;;8.66;64.46
80938;BME280;70395;51.382;7.074;2023-11-18T09:38:40;100982.09;;;8.65;64.51
80938;BME280;70395;51.382;7.074;2023-11-18T09:41:09;100983.09;;;8.64;64.54
80938;BME280;70395;51.382;7.074;2023-11-18T09:43:43;100981.28;;;8.65;64.52
80938;BME280;70395;51.382;7.074;2023-11-18T09:46:28;100985.75;;;8.64;64.51
80938;BME280;70395;51.382;7.074;2023-11-18T09:51:42;100997.06;;;8.68;64.47
80938;BME280;70395;51.382;7.074;2023-11-18T09:55:13;101004.25;;;8.67;64.69
80938;BME280;70395;51.382;7.074;2023-11-18T09:57:44;101003.03;;;8.72;64.54
80938;BME280;70395;51.382;7.074;2023-11-18T10:00:16;100996.63;;;8.74;64.62
80938;BME280;70395;51.382;7.074;2023-11-18T10:02:58;100985.44;;;8.81;64.51
80938;BME280;70395;51.382;7.074;2023-11-18T10:05:27;100989.47;;;8.86;64.56
80938;BME280;70395;51.382;7.074;2023-11-18T10:07:55;100980.38;;;8.89;64.62
80938;BME280;70395;51.382;7.074;2023-11-18T10:10:24;100979.16;;;8.93;64.58
80938;BME280;70395;51.382;7.074;2023-11-18T10:12:52;100979.66;;;8.98;64.42
80938;BME280;70395;51.382;7.074;2023-11-18T10:15:22;100972.22;;;9.02;64.29
80938;BME280;70395;51.382;7.074;2023-11-18T10:17:52;100957.88;;;9.03;64.10
80938;BME280;70395;51.382;7.074;2023-11-18T10:23:09;100949.72;;;9.05;64.25
80938;BME280;70395;51.382;7.074;2023-11-18T10:28:26;100945.88;;;9.09;64.39
80938;BME280;70395;51.382;7.074;2023-11-18T10:33:35;100915.94;;;9.15;64.34
80938;BME280;70395;51.382;7.074;2023-11-18T10:36:02;100911.94;;;9.21;64.46
80938;BME280;70395;51.382;7.074;2023-11-18T10:38:38;100909.03;;;9.24;64.33
80938;BME280;70395;51.382;7.074;2023-11-18T10:41:09;100904.97;;;9.30;63.91
80938;BME280;70395;51.382;7.074;2023-11-18T10:43:37;100894.19;;;9.31;63.95
80938;BME280;70395;51.382;7.074;2023-11-18T10:46:09;100894.19;;;9.31;63.93
80938;BME280;70395;51.382;7.074;2023-11-18T10:48:43;100894.75;;;9.35;64.11
80938;BME280;70395;51.382;7.074;2023-11-18T10:51:11;100887.34;;;9.39;63.99
80938;BME280;70395;51.382;7.074;2023-11-18T10:53:41;100880.03;;;9.41;64.13
80938;BME280;70395;51.382;7.074;2023-11-18T10:56:29;100865.28;;;9.46;63.82
80938;BME280;70395;51.382;7.074;2023-11-18T10:59:04;100864.19;;;9.49;63.85
80938;BME280;70395;51.382;7.074;2023-11-18T11:01:36;100866.50;;;9.54;63.86
80938;BME280;70395;51.382;7.074;2023-11-18T11:04:12;100867.84;;;9.60;63.72
80938;BME280;70395;51.382;7.074;2023-11-18T11:06:44;100866.88;;;9.61;63.79
80938;BME280;70395;51.382;7.074;2023-11-18T11:09:21;100858.56;;;9.64;63.56
80938;BME280;70395;51.382;7.074;2023-11-18T11:12:06;100858.84;;;9.61;63.38
80938;BME280;70395;51.382;7.074;2023-11-18T11:14:59;100835.56;;;9.61;63.67
80938;BME280;70395;51.382;7.074;2023-11-18T11:17:27;100834.34;;;9.65;63.52
80938;BME280;70395;51.382;7.074;2023-11-18T11:20:07;100834.47;;;9.64;63.45
80938;BME280;70395;51.382;7.074;2023-11-18T11:29:01;100855.88;;;9.64;63.65
80938;BME280;70395;51.382;7.074;2023-11-18T11:31:41;100847.75;;;9.65;63.50
80938;BME280;70395;51.382;7.074;2023-11-18T11:34:18;100855.50;;;9.68;63.45
80938;BME280;70395;51.382;7.074;2023-11-18T11:36:51;100856.25;;;9.71;63.74
80938;BME280;70395;51.382;7.074;2023-11-18T11:39:20;100857.69;;;9.75;63.62
80938;BME280;70395;51.382;7.074;2023-11-18T11:41:55;100848.66;;;9.76;63.81
80938;BME280;70395;51.382;7.074;2023-11-18T11:44:23;100843.19;;;9.77;63.93
80938;BME280;70395;51.382;7.074;2023-11-18T11:46:57;100840.28;;;9.80;63.77
80938;BME280;70395;51.382;7.074;2023-11-18T11:49:29;100843.66;;;9.83;63.72
80938;BME280;70395;51.382;7.074;2023-11-18T11:52:19;100849.41;;;9.78;63.98
80938;BME280;70395;51.382;7.074;2023-11-18T11:55:04;100845.16;;;9.75;64.36
80938;BME280;70395;51.382;7.074;2023-11-18T11:57:32;100839.53;;;9.78;64.38
80938;BME280;70395;51.382;7.074;2023-11-18T12:00:03;100832.50;;;9.77;64.42
80938;BME280;70395;51.382;7.074;2023-11-18T12:02:48;100826.41;;;9.75;64.79
80938;BME280;70395;51.382;7.074;2023-11-18T12:05:18;100841.63;;;9.75;64.82
80938;BME280;70395;51.382;7.074;2023-11-18T12:07:52;100840.78;;;9.74;64.91
80938;BME280;70395;51.382;7.074;2023-11-18T12:10:27;100851.72;;;9.71;65.21
80938;BME280;70395;51.382;7.074;2023-11-18T12:13:10;100852.97;;;9.67;65.23
80938;BME280;70395;51.382;7.074;2023-11-18T12:15:55;100850.28;;;9.67;65.30
80938;BME280;70395;51.382;7.074;2023-11-18T12:18:24;100834.94;;;9.69;65.45
80938;BME280;70395;51.382;7.074;2023-11-18T12:20:51;100830.31;;;9.71;65.35
80938;BME280;70395;51.382;7.074;2023-11-18T12:23:21;100812.16;;;9.75;65.15
80938;BME280;70395;51.382;7.074;2023-11-18T12:25:51;100785.13;;;9.78;65.27
80938;BME280;70395;51.382;7.074;2023-11-18T12:28:25;100773.56;;;9.77;65.11
80938;BME280;70395;51.382;7.074;2023-11-18T12:30:57;100769.88;;;9.78;64.98
80938;BME280;70395;51.382;7.074;2023-11-18T12:43:02;100733.13;;;9.80;65.00
80938;BME280;70395;51.382;7.074;2023-11-18T12:45:52;100743.09;;;9.78;65.34
80938;BME280;70395;51.382;7.074;2023-11-18T12:48:30;100735.22;;;9.77;65.32
80938;BME280;70395;51.382;7.074;2023-11-18T12:50:59;100727.03;;;9.78;65.64
80938;BME280;70395;51.382;7.074;2023-11-18T12:53:26;100718.03;;;9.79;65.51
80938;BME280;70395;51.382;7.074;2023-11-18T12:55:54;100712.69;;;9.79;65.68
80938;BME280;70395;51.382;7.074;2023-11-18T12:58:21;100714.66;;;9.77;65.54
80938;BME280;70395;51.382;7.074;2023-11-18T13:00:48;100698.56;;;9.77;65.70
80938;BME280;70395;51.382;7.074;2023-11-18T13:03:15;100695.03;;;9.77;65.70
80938;BME280;70395;51.382;7.074;2023-11-18T13:05:41;100676.44;;;9.75;65.61
80938;BME280;70395;51.382;7.074;2023-11-18T13:08:09;100664.72;;;9.76;65.76
80938;BME280;70395;51.382;7.074;2023-11-18T13:10:35;100650.22;;;9.79;65.68
80938;BME280;70395;51.382;7.074;2023-11-18T13:13:03;100642.66;;;9.84;65.50
80938;BME280;70395;51.382;7.074;2023-11-18T13:15:30;100644.22;;;9.87;65.61
80938;BME280;70395;51.382;7.074;2023-11-18T13:18:04;100650.41;;;9.87;65.38
80938;BME280;70395;51.382;7.074;2023-11-18T13:20:35;100646.88;;;9.87;65.58
80938;BME280;70395;51.382;7.074;2023-11-18T13:23:02;100637.88;;;9.88;65.65
80938;BME280;70395;51.382;7.074;2023-11-18T13:25:37;100616.44;;;9.88;65.35
80938;BME280;70395;51.382;7.074;2023-11-18T13:28:11;100594.16;;;9.87;65.57
80938;BME280;70395;51.382;7.074;2023-11-18T13:30:38;100587.69;;;9.90;65.67
80938;BME280;70395;51.382;7.074;2023-11-18T13:33:04;100575.97;;;9.91;65.67
80938;BME280;70395;51.382;7.074;2023-11-18T13:35:30;100570.06;;;9.87;65.78
80938;BME280;70395;51.382;7.074;2023-11-18T13:37:56;100553.41;;;9.84;65.61
80938;BME280;70395;51.382;7.074;2023-11-18T13:40:24;100550.88;;;9.82;65.79